Roswell, New Mexico
Current Conditions -  °F | °C
As of 8:05 AM on Wednesday 22 Oct 2014 (Local Time) from KROW Reporting Station
Haze Haze  
Wind Chill: 16°   Ceiling: 200
Heat Index: 16°   Visibility: 0.5mi
Dew Point: 15°   Wind: 0mph
Humidity: 96%   Direction: NA
Pressure: 30.11"   Gusts: NA
Location:  33.39°N, 104.52°W
Report Text: KROW 221405Z 00000KT 1/2SM BR BKN002 OVC015 16/15 A3011 RMK AO2 SFC VIS 1 1/2 T01560150
Loading
Personal Weather Stations






























Interactive Weather Map
Tropical Storm Tracking
New forecast layout! Learn more

10-Day Weather Forecast

Advertisements
Track Severe Weather on mobile